createdAt,value
2018-11-23T00:00:25.864Z,61.80
2018-11-23T00:02:55.034Z,60.63
2018-11-23T00:05:23.523Z,61.13
2018-11-23T00:07:52.816Z,62.53
2018-11-23T00:10:22.581Z,58.57
2018-11-23T00:12:51.131Z,63.70
2018-11-23T00:15:21.479Z,60.53
2018-11-23T00:17:50.067Z,61.67
2018-11-23T00:20:20.101Z,62.20
2018-11-23T00:22:48.604Z,63.73
2018-11-23T00:25:18.567Z,62.90
2018-11-23T00:27:47.053Z,62.30
2018-11-23T00:30:17.066Z,60.87
2018-11-23T00:32:46.096Z,64.10
2018-11-23T00:35:16.690Z,61.03
2018-11-23T00:37:45.602Z,62.80
2018-11-23T00:40:19.036Z,62.63
2018-11-23T00:42:47.782Z,58.30
2018-11-23T00:45:16.347Z,61.43
2018-11-23T00:47:45.615Z,59.13
2018-11-23T00:50:15.510Z,62.13
2018-11-23T00:52:44.712Z,59.27
2018-11-23T00:55:14.720Z,59.93
2018-11-23T00:57:43.273Z,60.13
2018-11-23T01:00:14.336Z,60.50
2018-11-23T01:02:42.958Z,62.53
2018-11-23T01:05:13.163Z,65.07
2018-11-23T01:07:42.365Z,62.57
2018-11-23T01:10:12.484Z,60.97
2018-11-23T01:12:41.374Z,65.03
2018-11-23T01:15:10.731Z,60.50
2018-11-23T01:17:39.428Z,60.80
2018-11-23T01:20:11.401Z,62.07
2018-11-23T01:22:40.611Z,60.20
2018-11-23T01:25:10.624Z,61.47
2018-11-23T01:27:40.040Z,58.57
2018-11-23T01:30:13.964Z,62.23
2018-11-23T01:32:42.484Z,62.27
2018-11-23T01:35:10.998Z,55.80
2018-11-23T01:37:39.537Z,63.10
2018-11-23T01:40:09.981Z,62.90
2018-11-23T01:42:38.489Z,63.80
2018-11-23T01:45:08.405Z,65.00
2018-11-23T01:47:36.923Z,59.67
2018-11-23T01:50:10.623Z,61.07
2018-11-23T01:52:39.187Z,64.17
2018-11-23T01:55:09.005Z,62.87
2018-11-23T01:57:38.166Z,61.20
2018-11-23T02:00:08.120Z,61.83
2018-11-23T02:02:36.593Z,62.27
2018-11-23T02:05:05.672Z,61.40
2018-11-23T02:07:34.324Z,63.77
2018-11-23T02:10:03.149Z,61.77
2018-11-23T02:12:31.691Z,61.17
2018-11-23T02:15:00.176Z,59.93
2018-11-23T02:17:28.639Z,61.27
2018-11-23T02:19:57.794Z,58.00
2018-11-23T02:22:28.501Z,57.93
2018-11-23T02:24:57.122Z,61.40
2018-11-23T02:27:25.689Z,61.10
2018-11-23T02:29:54.225Z,59.47
2018-11-23T02:32:22.717Z,60.60
2018-11-23T02:34:51.439Z,60.77
2018-11-23T02:37:20.027Z,61.00
2018-11-23T02:39:48.527Z,61.17
2018-11-23T02:42:17.403Z,61.63
2018-11-23T02:44:46.123Z,61.23
2018-11-23T02:47:14.664Z,60.93
2018-11-23T02:49:43.147Z,58.43
2018-11-23T02:52:11.786Z,58.23
2018-11-23T02:54:40.310Z,57.60
2018-11-23T02:57:08.813Z,57.40
2018-11-23T02:59:37.306Z,63.63
2018-11-23T03:02:06.122Z,61.13
2018-11-23T03:04:34.663Z,63.27
2018-11-23T03:07:03.245Z,57.00
2018-11-23T03:09:31.827Z,58.17
2018-11-23T03:12:00.370Z,60.53
2018-11-23T03:14:28.848Z,60.33
2018-11-23T03:16:57.311Z,57.17
2018-11-23T03:19:25.894Z,61.60
2018-11-23T03:21:54.482Z,60.87
2018-11-23T03:24:23.079Z,60.83
2018-11-23T03:26:51.595Z,59.07
2018-11-23T03:29:20.173Z,59.93
2018-11-23T03:31:48.642Z,61.53
2018-11-23T03:34:17.113Z,59.77
2018-11-23T03:36:45.603Z,60.13
2018-11-23T03:39:14.070Z,58.67
2018-11-23T03:41:42.699Z,58.50
2018-11-23T03:44:11.173Z,57.20
2018-11-23T03:46:39.676Z,58.20
2018-11-23T03:49:08.170Z,57.40
2018-11-23T03:51:36.683Z,57.67
2018-11-23T03:54:05.470Z,56.90
2018-11-23T03:56:34.359Z,60.17
2018-11-23T03:59:03.081Z,57.80
2018-11-23T04:01:31.578Z,59.33
2018-11-23T04:04:00.124Z,56.13
2018-11-23T04:06:28.700Z,56.53
2018-11-23T04:08:57.171Z,58.07
2018-11-23T04:11:25.644Z,56.00
2018-11-23T04:13:54.150Z,56.50
2018-11-23T04:16:22.671Z,54.37
2018-11-23T04:18:51.187Z,56.00
2018-11-23T04:21:19.645Z,53.53
2018-11-23T04:23:48.156Z,53.30
2018-11-23T04:26:16.604Z,56.57
2018-11-23T04:28:45.090Z,55.63
2018-11-23T04:31:13.615Z,54.13
2018-11-23T04:33:42.105Z,55.57
2018-11-23T04:36:10.689Z,52.90
2018-11-23T04:38:39.418Z,54.37
2018-11-23T04:41:07.900Z,54.37
2018-11-23T04:43:36.370Z,59.87
2018-11-23T04:46:05.233Z,57.47
2018-11-23T04:48:33.779Z,57.33
2018-11-23T04:51:02.230Z,53.23
2018-11-23T04:53:30.715Z,57.33
2018-11-23T04:55:59.235Z,55.80
2018-11-23T04:58:27.712Z,52.40
2018-11-23T05:00:56.215Z,55.00
2018-11-23T05:03:24.842Z,51.80
2018-11-23T05:05:53.371Z,51.63
2018-11-23T05:08:22.004Z,51.53
2018-11-23T05:10:50.537Z,50.90
2018-11-23T05:13:19.118Z,54.10
2018-11-23T05:15:47.583Z,54.83
2018-11-23T05:18:16.036Z,53.47
2018-11-23T05:20:44.506Z,55.63
2018-11-23T05:23:12.989Z,53.63
2018-11-23T05:25:41.544Z,53.90
2018-11-23T05:28:10.063Z,55.50
2018-11-23T05:30:38.535Z,53.47
2018-11-23T05:33:06.982Z,57.03
2018-11-23T05:35:35.457Z,55.70
2018-11-23T05:38:03.941Z,57.00
2018-11-23T05:40:32.563Z,54.20
2018-11-23T05:43:04.509Z,57.80
2018-11-23T05:45:29.698Z,57.13
2018-11-23T05:47:58.169Z,66.67
2018-11-23T05:50:26.727Z,61.80
2018-11-23T05:52:55.191Z,62.07
2018-11-23T05:55:23.725Z,54.63
2018-11-23T05:57:52.792Z,58.47
2018-11-23T06:00:24.163Z,61.77
2018-11-23T06:02:53.040Z,54.57
2018-11-23T06:05:21.716Z,54.57
2018-11-23T06:07:50.313Z,53.60
2018-11-23T06:10:19.922Z,56.77
2018-11-23T06:12:48.468Z,54.07
2018-11-23T06:15:19.258Z,56.67
2018-11-23T06:17:48.308Z,59.97
2018-11-23T06:20:19.096Z,54.60
2018-11-23T06:22:48.480Z,57.37
2018-11-23T06:25:28.947Z,59.83
2018-11-23T06:27:57.449Z,56.00
2018-11-23T06:30:26.266Z,52.97
2018-11-23T06:33:05.982Z,56.40
2018-11-23T06:35:34.447Z,55.17
2018-11-23T06:38:02.925Z,53.13
2018-11-23T06:40:31.414Z,54.63
2018-11-23T06:42:59.940Z,58.67
2018-11-23T06:45:28.608Z,58.00
2018-11-23T06:47:57.076Z,58.37
2018-11-23T06:50:25.599Z,56.80
2018-11-23T06:52:54.094Z,58.80
2018-11-23T06:55:22.789Z,55.93
2018-11-23T06:57:51.275Z,57.30
2018-11-23T07:00:19.926Z,58.93
2018-11-23T07:02:48.755Z,82.87
2018-11-23T07:05:17.467Z,66.20
2018-11-23T07:07:46.112Z,63.33
2018-11-23T07:10:14.647Z,56.73
2018-11-23T07:12:43.099Z,59.13
2018-11-23T07:15:12.604Z,52.20
2018-11-23T07:17:41.780Z,58.07
2018-11-23T07:20:12.837Z,55.53
2018-11-23T07:22:41.919Z,55.60
2018-11-23T07:25:11.834Z,56.33
2018-11-23T07:27:40.808Z,55.93
2018-11-23T07:30:12.868Z,55.83
2018-11-23T07:32:41.339Z,60.43
2018-11-23T07:35:09.840Z,55.30
2018-11-23T07:37:38.971Z,56.20
2018-11-23T07:40:19.926Z,54.40
2018-11-23T07:42:48.418Z,54.73
2018-11-23T07:45:16.963Z,53.83
2018-11-23T07:47:45.902Z,53.90
2018-11-23T07:50:14.399Z,55.67
2018-11-23T07:52:42.884Z,55.03
2018-11-23T07:55:12.342Z,57.27
2018-11-23T07:57:41.236Z,54.10
2018-11-23T08:00:11.552Z,54.57
2018-11-23T08:02:40.235Z,57.10
2018-11-23T08:05:10.616Z,55.50
2018-11-23T08:07:39.116Z,54.90
2018-11-23T08:10:10.414Z,54.30
2018-11-23T08:12:40.104Z,58.67
2018-11-23T08:15:13.211Z,56.70
2018-11-23T08:17:41.720Z,55.37
2018-11-23T08:20:12.736Z,56.83
2018-11-23T08:22:41.368Z,64.00
2018-11-23T08:25:11.239Z,68.63
2018-11-23T08:27:40.309Z,60.20
2018-11-23T08:30:12.373Z,60.40
2018-11-23T08:32:41.084Z,58.17
2018-11-23T08:35:10.245Z,65.83
2018-11-23T08:37:39.192Z,61.23
2018-11-23T08:40:10.495Z,79.77
2018-11-23T08:42:39.384Z,63.57
2018-11-23T08:45:10.439Z,63.93
2018-11-23T08:47:39.053Z,60.83
2018-11-23T08:50:12.165Z,63.90
2018-11-23T08:52:40.650Z,61.53
2018-11-23T08:55:10.270Z,63.87
2018-11-23T08:57:38.810Z,60.37
2018-11-23T09:00:14.880Z,66.37
2018-11-23T09:02:44.640Z,62.57
2018-11-23T09:05:13.329Z,61.33
2018-11-23T09:07:42.301Z,58.30
2018-11-23T09:10:14.141Z,60.80
2018-11-23T09:12:43.526Z,59.83
2018-11-23T09:15:13.594Z,60.90
2018-11-23T09:17:42.899Z,62.77
2018-11-23T09:20:13.000Z,64.07
2018-11-23T09:22:41.800Z,63.83
2018-11-23T09:25:14.972Z,63.50
2018-11-23T09:27:43.582Z,63.00
2018-11-23T09:30:15.748Z,66.60
2018-11-23T09:32:45.068Z,61.50
2018-11-23T09:35:13.912Z,61.80
2018-11-23T09:37:42.864Z,61.10
2018-11-23T09:40:16.153Z,61.53
2018-11-23T09:42:44.719Z,65.23
2018-11-23T09:45:16.049Z,63.87
2018-11-23T09:47:45.640Z,65.33
2018-11-23T09:50:15.688Z,58.70
2018-11-23T09:52:45.051Z,58.27
2018-11-23T09:55:13.637Z,57.27
2018-11-23T09:57:42.136Z,55.37
2018-11-23T10:00:14.302Z,57.33
2018-11-23T10:02:43.286Z,54.27
2018-11-23T10:05:12.911Z,54.53
2018-11-23T10:07:42.217Z,57.20
2018-11-23T10:10:11.908Z,58.23
2018-11-23T10:12:40.822Z,57.27
2018-11-23T10:15:10.705Z,57.00
2018-11-23T10:17:39.524Z,56.53
2018-11-23T10:20:10.363Z,55.80
2018-11-23T10:22:39.242Z,57.13
2018-11-23T10:25:09.093Z,55.50
2018-11-23T10:27:38.151Z,52.13
2018-11-23T10:30:08.820Z,55.73
2018-11-23T10:32:37.429Z,55.90
2018-11-23T10:35:07.378Z,56.27
2018-11-23T10:37:35.909Z,55.97
2018-11-23T10:40:06.251Z,53.33
2018-11-23T10:42:34.771Z,53.60
2018-11-23T10:45:03.364Z,53.13
2018-11-23T10:47:31.839Z,56.30
2018-11-23T10:50:00.299Z,53.00
2018-11-23T10:52:28.799Z,54.63
2018-11-23T10:54:57.284Z,50.27
2018-11-23T10:57:26.945Z,53.07
2018-11-23T10:59:55.532Z,54.90
2018-11-23T11:02:29.212Z,51.83
2018-11-23T11:05:02.985Z,49.33
2018-11-23T11:07:31.471Z,49.00
2018-11-23T11:10:00.017Z,49.33
2018-11-23T11:12:28.591Z,48.43
2018-11-23T11:14:57.060Z,47.77
2018-11-23T11:17:25.590Z,55.13
2018-11-23T11:19:54.267Z,54.50
2018-11-23T11:22:23.652Z,53.30
2018-11-23T11:24:52.164Z,51.83
2018-11-23T11:27:20.895Z,52.10
2018-11-23T11:29:49.412Z,50.20
2018-11-23T11:32:17.963Z,51.07
2018-11-23T11:34:46.875Z,52.47
2018-11-23T11:37:15.372Z,50.73
2018-11-23T11:39:44.062Z,51.33
2018-11-23T11:42:12.643Z,54.50
2018-11-23T11:44:41.102Z,55.97
2018-11-23T11:47:09.707Z,55.00
2018-11-23T11:49:38.188Z,62.23
2018-11-23T11:52:06.714Z,57.43
2018-11-23T11:54:35.211Z,56.60
2018-11-23T11:57:03.978Z,58.57
2018-11-23T11:59:32.514Z,55.30
2018-11-23T12:02:00.984Z,56.57
2018-11-23T12:04:29.532Z,57.17
2018-11-23T12:06:58.279Z,58.40
2018-11-23T12:09:26.956Z,57.50
2018-11-23T12:11:55.539Z,58.33
2018-11-23T12:14:24.050Z,55.10
2018-11-23T12:16:54.750Z,58.30
2018-11-23T12:19:23.275Z,60.37
2018-11-23T12:21:51.741Z,57.20
2018-11-23T12:24:20.285Z,59.57
2018-11-23T12:26:48.903Z,59.27
2018-11-23T12:29:17.384Z,58.83
2018-11-23T12:31:47.159Z,58.83
2018-11-23T12:34:16.631Z,57.47
2018-11-23T12:36:46.169Z,60.70
2018-11-23T12:42:08.342Z,61.53
2018-11-23T12:44:46.326Z,60.40
2018-11-23T12:47:25.641Z,58.30
2018-11-23T12:49:54.223Z,59.83
2018-11-23T12:52:22.715Z,57.83
2018-11-23T12:54:51.222Z,55.67
2018-11-23T12:57:19.710Z,59.47
2018-11-23T12:59:48.211Z,58.30
2018-11-23T13:02:16.876Z,57.03
2018-11-23T13:04:45.428Z,59.20
2018-11-23T13:07:13.925Z,57.60
2018-11-23T13:09:42.593Z,57.33
2018-11-23T13:12:11.035Z,55.23
2018-11-23T13:14:39.491Z,57.43
2018-11-23T13:17:08.323Z,56.50
2018-11-23T13:19:36.799Z,59.07
2018-11-23T13:22:05.470Z,60.30
2018-11-23T13:24:34.762Z,63.70
2018-11-23T13:27:03.219Z,58.07
2018-11-23T13:29:31.799Z,63.53
2018-11-23T13:32:00.298Z,63.63
2018-11-23T13:34:28.816Z,62.57
2018-11-23T13:36:57.283Z,61.53
2018-11-23T13:39:25.769Z,57.23
2018-11-23T13:41:54.318Z,58.80
2018-11-23T13:44:22.985Z,55.43
2018-11-23T13:46:51.571Z,59.57
2018-11-23T13:49:20.044Z,57.10
2018-11-23T13:51:48.504Z,58.80
2018-11-23T13:54:17.088Z,62.97
2018-11-23T13:56:45.686Z,58.70
2018-11-23T13:59:14.153Z,56.83
2018-11-23T14:01:42.660Z,56.07
2018-11-23T14:04:11.873Z,56.30
2018-11-23T14:06:40.491Z,53.20
2018-11-23T14:09:10.968Z,56.53
2018-11-23T14:11:40.778Z,55.13
2018-11-23T14:14:10.692Z,54.93
2018-11-23T14:16:39.173Z,53.93
2018-11-23T14:19:07.637Z,54.27
2018-11-23T14:21:36.105Z,56.60
2018-11-23T14:24:05.202Z,59.03
2018-11-23T14:26:33.735Z,56.20
2018-11-23T14:29:02.350Z,56.97
2018-11-23T14:31:30.812Z,54.93
2018-11-23T14:33:59.351Z,58.53
2018-11-23T14:36:27.829Z,57.37
2018-11-23T14:38:56.380Z,58.50
2018-11-23T14:41:24.854Z,56.73
2018-11-23T14:43:53.926Z,56.87
2018-11-23T14:46:22.643Z,56.23
2018-11-23T14:48:51.155Z,56.93
2018-11-23T14:51:20.348Z,57.13
2018-11-23T14:53:49.242Z,59.37
2018-11-23T14:56:17.727Z,56.70
2018-11-23T14:58:46.226Z,58.73
2018-11-23T15:01:14.779Z,63.07
2018-11-23T15:03:43.346Z,60.23
2018-11-23T15:06:11.896Z,54.80
2018-11-23T15:08:40.335Z,54.73
2018-11-23T15:11:08.855Z,56.87
2018-11-23T15:13:38.730Z,55.07
2018-11-23T15:16:07.235Z,60.33
2018-11-23T15:18:35.774Z,61.23
2018-11-23T15:21:26.904Z,58.63
2018-11-23T15:23:55.426Z,61.90
2018-11-23T15:26:23.942Z,64.80
2018-11-23T15:28:53.571Z,77.63
2018-11-23T15:31:22.032Z,77.17
2018-11-23T15:33:50.563Z,70.37
2018-11-23T15:36:19.369Z,68.30
2018-11-23T15:38:47.884Z,71.10
2018-11-23T15:41:16.418Z,69.47
2018-11-23T15:43:44.890Z,71.60
2018-11-23T15:46:13.382Z,82.03
2018-11-23T15:48:41.846Z,79.47
2018-11-23T15:51:11.172Z,73.47
2018-11-23T15:53:39.669Z,75.03
2018-11-23T15:56:08.179Z,96.10
2018-11-23T15:58:36.870Z,78.43
2018-11-23T16:01:05.772Z,88.70
2018-11-23T16:03:34.408Z,85.63
2018-11-23T16:06:02.952Z,73.57
2018-11-23T16:08:31.507Z,80.00
2018-11-23T16:11:00.182Z,77.43
2018-11-23T16:13:28.689Z,75.73
2018-11-23T16:15:57.699Z,76.63
2018-11-23T16:18:26.217Z,75.57
2018-11-23T16:20:54.698Z,77.40
2018-11-23T16:23:23.196Z,77.63
2018-11-23T16:25:52.382Z,82.30
2018-11-23T16:28:20.855Z,78.23
2018-11-23T16:30:50.626Z,74.67
2018-11-23T16:33:20.536Z,72.87
2018-11-23T16:36:16.331Z,70.83
2018-11-23T16:38:44.812Z,79.20
2018-11-23T16:41:13.357Z,82.17
2018-11-23T16:43:41.812Z,89.33
2018-11-23T16:49:45.813Z,109.20
2018-11-23T16:52:14.393Z,108.60
2018-11-23T16:54:42.907Z,106.40
2018-11-23T16:57:11.416Z,118.87
2018-11-23T16:59:39.909Z,114.40
2018-11-23T17:02:09.261Z,125.57
2018-11-23T17:04:38.631Z,89.37
2018-11-23T17:07:13.009Z,106.93
2018-11-23T17:09:37.046Z,111.67
2018-11-23T17:12:05.803Z,95.90
2018-11-23T17:14:34.362Z,88.67
2018-11-23T17:17:02.820Z,92.10
2018-11-23T17:19:44.606Z,83.63
2018-11-23T17:22:13.131Z,85.03
2018-11-23T17:24:41.587Z,86.90
2018-11-23T17:27:10.188Z,100.13
2018-11-23T17:29:38.652Z,108.20
2018-11-23T17:32:07.146Z,104.10
2018-11-23T17:34:35.607Z,91.17
2018-11-23T17:37:04.458Z,84.20
2018-11-23T17:39:33.087Z,83.67
2018-11-23T17:42:01.534Z,87.47
2018-11-23T17:44:31.907Z,85.97
2018-11-23T17:47:00.539Z,91.37
2018-11-23T17:49:29.410Z,94.27
2018-11-23T17:51:58.960Z,94.40
2018-11-23T17:54:27.652Z,92.60
2018-11-23T17:56:56.196Z,90.23
2018-11-23T17:59:24.844Z,88.10
2018-11-23T18:01:53.395Z,87.13
2018-11-23T18:04:21.873Z,83.97
2018-11-23T18:06:50.375Z,83.27
2018-11-23T18:09:18.888Z,78.30
2018-11-23T18:11:47.360Z,78.80
2018-11-23T18:14:15.855Z,80.93
2018-11-23T18:16:44.340Z,75.43
2018-11-23T18:19:12.862Z,77.43
2018-11-23T18:21:41.329Z,82.27
2018-11-23T18:24:09.863Z,74.17
2018-11-23T18:26:38.392Z,78.37
2018-11-23T18:29:06.902Z,82.07
2018-11-23T18:31:35.371Z,80.50
2018-11-23T18:34:03.841Z,72.37
2018-11-23T18:36:32.527Z,72.87
2018-11-23T18:39:01.062Z,78.30
2018-11-23T18:41:30.097Z,84.00
2018-11-23T18:43:58.747Z,72.80
2018-11-23T18:46:27.198Z,75.37
2018-11-23T18:48:55.774Z,72.53
2018-11-23T18:51:24.258Z,79.77
2018-11-23T18:53:52.939Z,85.70
2018-11-23T18:56:21.418Z,80.37
2018-11-23T18:58:49.881Z,75.27
2018-11-23T19:01:18.410Z,73.93
2018-11-23T19:03:46.995Z,75.93
2018-11-23T19:06:15.550Z,75.20
2018-11-23T19:08:44.038Z,78.03
2018-11-23T19:11:12.511Z,88.20
2018-11-23T19:13:41.392Z,97.30
2018-11-23T19:16:09.865Z,85.53
2018-11-23T19:18:38.491Z,90.13
2018-11-23T19:21:07.129Z,90.07
2018-11-23T19:23:35.742Z,81.00
2018-11-23T19:26:05.503Z,79.57
2018-11-23T19:28:33.975Z,94.20
2018-11-23T19:31:02.482Z,86.50
2018-11-23T19:33:30.940Z,92.37
2018-11-23T19:35:59.520Z,82.90
2018-11-23T19:38:27.998Z,74.77
2018-11-23T19:40:56.470Z,75.13
2018-11-23T19:43:24.989Z,85.70
2018-11-23T19:45:53.500Z,77.63
2018-11-23T19:48:22.008Z,72.87
2018-11-23T19:50:51.420Z,81.07
2018-11-23T19:53:19.960Z,77.27
2018-11-23T19:55:48.480Z,79.87
2018-11-23T19:58:17.107Z,73.10
2018-11-23T20:00:45.563Z,73.33
2018-11-23T20:03:14.088Z,88.33
2018-11-23T20:05:42.595Z,73.60
2018-11-23T20:08:11.068Z,71.80
2018-11-23T20:10:39.623Z,75.27
2018-11-23T20:13:08.183Z,78.97
2018-11-23T20:15:36.681Z,74.13
2018-11-23T20:18:05.877Z,71.53
2018-11-23T20:20:34.374Z,72.40
2018-11-23T20:23:02.882Z,72.73
2018-11-23T20:25:32.024Z,76.50
2018-11-23T20:28:00.603Z,76.33
2018-11-23T20:30:29.112Z,82.00
2018-11-23T20:32:57.669Z,92.13
2018-11-23T20:35:26.111Z,83.30
2018-11-23T20:37:54.645Z,75.13
2018-11-23T20:40:23.737Z,79.03
2018-11-23T20:42:52.612Z,80.70
2018-11-23T20:45:21.234Z,70.37
2018-11-23T20:47:49.952Z,69.40
2018-11-23T20:50:19.115Z,72.70
2018-11-23T20:52:47.796Z,85.10
2018-11-23T20:55:18.657Z,72.50
2018-11-23T20:57:47.161Z,73.63
2018-11-23T21:00:17.679Z,68.33
2018-11-23T21:02:47.186Z,68.80
2018-11-23T21:05:17.248Z,74.63
2018-11-23T21:07:45.951Z,65.90
2018-11-23T21:10:20.374Z,68.37
2018-11-23T21:12:46.832Z,67.33
2018-11-23T21:15:17.876Z,70.97
2018-11-23T21:17:46.873Z,73.93
2018-11-23T21:20:15.813Z,69.30
2018-11-23T21:22:44.378Z,63.60
2018-11-23T21:25:13.312Z,66.60
2018-11-23T21:27:41.958Z,66.57
2018-11-23T21:30:21.628Z,67.77
2018-11-23T21:32:50.966Z,74.93
2018-11-23T21:35:19.669Z,73.03
2018-11-23T21:37:48.863Z,67.53
2018-11-23T21:40:17.956Z,67.43
2018-11-23T21:42:47.002Z,70.30
2018-11-23T21:45:17.680Z,62.77
2018-11-23T21:47:46.319Z,61.87
2018-11-23T21:50:24.607Z,67.97
2018-11-23T21:52:45.838Z,66.47
2018-11-23T21:55:18.605Z,57.77
2018-11-23T21:57:47.194Z,61.40
2018-11-23T22:00:16.524Z,60.87
2018-11-23T22:02:45.171Z,60.80
2018-11-23T22:05:14.004Z,60.30
2018-11-23T22:07:42.808Z,62.70
2018-11-23T22:10:20.810Z,64.13
2018-11-23T22:12:49.463Z,63.43
2018-11-23T22:15:21.208Z,61.17
2018-11-23T22:17:50.719Z,63.50
2018-11-23T22:20:20.656Z,60.27
2018-11-23T22:22:49.269Z,63.93
2018-11-23T22:25:19.108Z,58.20
2018-11-23T22:27:47.912Z,62.63
2018-11-23T22:30:21.602Z,61.07
2018-11-23T22:32:50.303Z,64.43
2018-11-23T22:35:19.010Z,64.43
2018-11-23T22:37:47.573Z,59.07
2018-11-23T22:40:18.150Z,59.13
2018-11-23T22:42:47.831Z,61.53
2018-11-23T22:45:17.451Z,60.13
2018-11-23T22:47:46.024Z,54.47
2018-11-23T22:50:16.871Z,59.50
2018-11-23T22:52:45.381Z,58.67
2018-11-23T22:55:14.618Z,57.37
2018-11-23T22:57:43.126Z,59.90
2018-11-23T23:00:22.907Z,53.57
2018-11-23T23:02:51.429Z,56.37
2018-11-23T23:05:21.307Z,52.27
2018-11-23T23:07:50.130Z,57.17
2018-11-23T23:10:18.978Z,53.13
2018-11-23T23:12:48.122Z,55.30
2018-11-23T23:15:17.400Z,60.33
2018-11-23T23:17:46.169Z,57.50
2018-11-23T23:20:16.232Z,51.90
2018-11-23T23:22:44.731Z,52.93
2018-11-23T23:25:13.603Z,53.10
2018-11-23T23:27:42.127Z,52.90
2018-11-23T23:30:12.451Z,53.90
2018-11-23T23:32:41.160Z,52.90
2018-11-23T23:35:12.728Z,53.77
2018-11-23T23:37:41.991Z,51.17
2018-11-23T23:40:16.639Z,54.40
2018-11-23T23:42:45.732Z,51.80
2018-11-23T23:45:17.083Z,54.07
2018-11-23T23:47:45.808Z,55.27
2018-11-23T23:50:15.816Z,61.00
2018-11-23T23:52:44.462Z,55.97
2018-11-23T23:55:13.004Z,52.27
2018-11-23T23:57:42.892Z,55.07
